Terminal Aerodrome Forecast
Issued by NWS

Home | Current Version | Previous Version | Text Only | Print | Product List | Glossary On
Versions: 1 2 3 4 5 6 7 8 9 10 11 12 13
132
FTUS43 KLSX 252320
TAFCPS
TAF
KCPS 252320Z 2600/2624 10006KT P6SM FEW200
     FM261400 17004KT P6SM FEW150
     FM262100 20005KT P6SM BKN060=

USA.gov is the U.S. government's official web portal to all federal, state and local government web resources and services.